Pagrindinis puslapis
METAR-TAF:

METAR-TAF

Oro uostai :

Ørsta-Volda, Norvegija

platuma: 62-11N, ilguma: 006-04E, Aukštis: 7 m

Dabartinis oras

Ataskaita buvo paskelbta 21 minutes, ne 09:20 UTC
Ramus vėjas
Temperatūra 13°C
Drėgmė 67%
Slėgis 1004 hPa
Matomumas 10 km arba daugiau
Su prošvaistėmis ne aukštis 4700 ft

METAR: ENOV 020920Z 00000KT 9999 BKN047 13/07 Q1004 RMK WIND RWY24 00000KT WIND 2090FT 16015KT

Laikas: 11:41 (09:41 UTC)

Prognozė

Ataskaita buvo paskelbta 1 valandą ir 41 minutes, ne 08:00 UTC
Prognozė galioja nuo 02 metu 09 UTC su 02 metu 18 UTC
Vėjas 3 kt nuo kintamojo kryptimis
Matomumas 10 km arba daugiau
Išsisklaidę debesys ne aukštis 5000 ft
Laikinai
nuo 02 metu 14 UTC su 02 metu 18 UTC
Matomumas: 4000 m
Su prošvaistėmis ne aukštis 1200 ft
Išsisklaidę debesys ne aukštis 2000 ft, Liūtiniai kamuoliniai debesys.
lietus

TAF: ENOV 020800Z 0209/0218 VRB03KT 9999 SCT050 TEMPO 0214/0218 4000 SHRA BKN012 SCT020CB

Orai ataskaitas ir orų prognozės (METAR, TAF).

turimą stotys yra geltonos ir raudonos taškus žemėlapyje.

Perkelti pele per norėdami pamatyti stoties vardą.

Tada spustelėkite, norėdami matyti oro stebėjimo ir prognozės.

Norėdami pakeisti žemėlapį: spustelėkite ant žalios mygtukų su juodo kryžiaus žemyn,; žalią mygtuką su brūkšneliu, jei norite nutolinti; arba žalių rodyklių gretimoms žemėlapius.


METAR-TAF: